Time;durP1;ratioP1;P1;durP2;ratioP2;P2;SDS_P1;SDS_P2;PMS_P1;PMS_P2;Temp;Humidity;BMP_temperature;BMP_pressure;BME280_temperature;BME280_humidity;BME280_pressure;Samples;Min_cycle;Max_cycle;Signal;HPM_P1;HPM_P2
2022/12/25 00:00:11;;;;;;;80.50;14.25;;;;;;;;;;4994871;28;20464;-90
2022/12/25 00:02:38;;;;;;;64.78;14.77;;;;;;;;;;4989969;28;20703;-91
2022/12/25 00:05:04;;;;;;;84.38;15.65;;;;;;;;;;4997250;28;20069;-91
2022/12/25 00:07:30;;;;;;;56.63;13.50;;;;;;;;;;4964222;28;20033;-91
2022/12/25 00:09:56;;;;;;;72.07;15.07;;;;;;;;;;4974000;28;20039;-91
2022/12/25 00:12:22;;;;;;;70.10;15.13;;;;;;;;;;4967051;28;20752;-91
2022/12/25 00:14:48;;;;;;;69.45;15.63;;;;;;;;;;5004311;28;20042;-91
2022/12/25 00:17:14;;;;;;;58.35;15.30;;;;;;;;;;4996438;28;20042;-91
2022/12/25 00:19:40;;;;;;;69.68;16.05;;;;;;;;;;4980597;28;20307;-91
2022/12/25 00:22:06;;;;;;;53.83;14.20;;;;;;;;;;4983710;28;20092;-91
2022/12/25 00:24:32;;;;;;;65.47;14.88;;;;;;;;;;4988506;28;20048;-91
2022/12/25 00:26:59;;;;;;;60.45;15.85;;;;;;;;;;4999727;28;20053;-91
2022/12/25 00:29:25;;;;;;;65.10;14.38;;;;;;;;;;4975569;28;20240;-91
2022/12/25 00:31:51;;;;;;;78.05;16.17;;;;;;;;;;4998173;28;20123;-91
2022/12/25 00:34:17;;;;;;;77.75;16.50;;;;;;;;;;4992760;28;20052;-91
2022/12/25 00:36:43;;;;;;;65.70;15.70;;;;;;;;;;4990937;28;20088;-91
2022/12/25 00:39:09;;;;;;;59.38;14.45;;;;;;;;;;4969079;28;20034;-91
2022/12/25 00:44:20;;;;;;;52.95;15.40;;;;;;;;;;4992646;28;20408;-91
2022/12/25 00:46:46;;;;;;;82.65;21.67;;;;;;;;;;4984389;28;20085;-91
2022/12/25 00:49:12;;;;;;;62.75;18.17;;;;;;;;;;4978699;28;20065;-91
2022/12/25 00:51:38;;;;;;;64.78;13.50;;;;;;;;;;4985397;28;20057;-91
2022/12/25 00:54:04;;;;;;;59.97;15.23;;;;;;;;;;5008101;28;20065;-91
2022/12/25 00:56:30;;;;;;;68.18;15.10;;;;;;;;;;4980329;28;20464;-91
2022/12/25 00:58:56;;;;;;;69.57;14.60;;;;;;;;;;4996790;28;20038;-91
2022/12/25 01:01:22;;;;;;;61.30;13.73;;;;;;;;;;4981143;28;20038;-91
2022/12/25 01:03:51;;;;;;;54.97;12.77;;;;;;;;;;4977420;28;20104;-90
2022/12/25 01:06:23;;;;;;;57.53;14.25;;;;;;;;;;4985588;28;20036;-91
2022/12/25 01:11:34;;;;;;;59.55;14.35;;;;;;;;;;5001606;28;20051;-91
2022/12/25 01:14:00;;;;;;;72.40;13.38;;;;;;;;;;4969244;28;20041;-90
2022/12/25 01:16:26;;;;;;;56.65;13.70;;;;;;;;;;4969329;28;20154;-90
2022/12/25 01:18:53;;;;;;;61.20;14.07;;;;;;;;;;4987164;28;20039;-91
2022/12/25 01:21:20;;;;;;;70.70;12.35;;;;;;;;;;4994461;28;20105;-91
2022/12/25 01:23:46;;;;;;;46.33;12.95;;;;;;;;;;4977713;28;20087;-91
2022/12/25 01:26:13;;;;;;;61.47;16.23;;;;;;;;;;4995779;28;20489;-91
2022/12/25 01:28:39;;;;;;;55.13;14.13;;;;;;;;;;4976930;28;20033;-91
2022/12/25 01:31:08;;;;;;;67.82;13.77;;;;;;;;;;4982781;28;20109;-91
2022/12/25 01:33:34;;;;;;;58.08;12.63;;;;;;;;;;4989944;28;20492;-91
2022/12/25 01:36:00;;;;;;;70.40;14.02;;;;;;;;;;4995278;28;20076;-91
2022/12/25 01:38:26;;;;;;;56.25;14.38;;;;;;;;;;4984817;28;20064;-91
2022/12/25 01:40:54;;;;;;;66.70;13.38;;;;;;;;;;4996301;28;20080;-91
2022/12/25 01:43:24;;;;;;;64.72;15.77;;;;;;;;;;4967434;28;20026;-91
2022/12/25 01:45:54;;;;;;;54.83;13.68;;;;;;;;;;4982899;28;20470;-91
2022/12/25 01:48:33;;;;;;;51.63;14.40;;;;;;;;;;4984579;28;20555;-90
2022/12/25 01:51:10;;;;;;;82.43;15.80;;;;;;;;;;4975520;28;20030;-91
2022/12/25 01:53:36;;;;;;;67.18;16.50;;;;;;;;;;4980258;28;20517;-90
2022/12/25 01:56:04;;;;;;;49.42;12.07;;;;;;;;;;4987894;28;20035;-90
2022/12/25 01:58:31;;;;;;;74.15;16.67;;;;;;;;;;4978898;28;20046;-91
2022/12/25 02:00:57;;;;;;;68.32;14.55;;;;;;;;;;4998066;28;20038;-91
2022/12/25 02:03:23;;;;;;;84.35;16.00;;;;;;;;;;4980435;28;20567;-91
2022/12/25 02:05:50;;;;;;;89.93;17.20;;;;;;;;;;5005286;28;20031;-91
2022/12/25 02:08:18;;;;;;;82.07;16.55;;;;;;;;;;5005907;28;20155;-91
2022/12/25 02:10:44;;;;;;;74.60;16.92;;;;;;;;;;4987191;28;21055;-90
2022/12/25 02:13:11;;;;;;;78.15;16.95;;;;;;;;;;4971980;28;20041;-90
2022/12/25 02:15:56;;;;;;;68.95;17.60;;;;;;;;;;4978478;28;20034;-91
2022/12/25 02:18:22;;;;;;;80.22;16.05;;;;;;;;;;4987530;28;20018;-91
2022/12/25 02:21:08;;;;;;;65.47;17.10;;;;;;;;;;5003873;28;20031;-91
2022/12/25 02:23:43;;;;;;;66.95;16.20;;;;;;;;;;4987746;28;20034;-90
2022/12/25 02:26:09;;;;;;;77.70;16.83;;;;;;;;;;5003844;28;20064;-91
2022/12/25 02:28:41;;;;;;;50.83;12.15;;;;;;;;;;5005293;28;20681;-91
2022/12/25 02:31:12;;;;;;;74.47;16.95;;;;;;;;;;5007868;28;20370;-91
2022/12/25 02:34:03;;;;;;;69.00;16.58;;;;;;;;;;5001979;28;20076;-91
2022/12/25 02:36:49;;;;;;;63.60;14.57;;;;;;;;;;5004956;28;20060;-91
2022/12/25 02:42:08;;;;;;;60.38;13.98;;;;;;;;;;5012949;28;20544;-91
2022/12/25 03:06:56;;;;;;;66.40;18.08;;;;;;;;;;5002204;28;20125;-91
2022/12/25 03:12:22;;;;;;;26.77;8.48;;;;;;;;;;5006289;28;20076;-91
2022/12/25 03:17:33;;;;;;;46.47;14.02;;;;;;;;;;5000702;28;20045;-91
2022/12/25 03:28:15;;;;;;;63.60;17.45;;;;;;;;;;5012844;28;20045;-90
2022/12/25 03:33:39;;;;;;;38.13;11.00;;;;;;;;;;5005924;28;20045;-91
2022/12/25 03:36:13;;;;;;;56.25;15.43;;;;;;;;;;4998649;28;20678;-90
2022/12/25 04:36:15;;;;;;;66.35;18.15;;;;;;;;;;5002878;28;20057;-90
2022/12/25 04:38:41;;;;;;;75.00;19.48;;;;;;;;;;4974578;28;20084;-91
2022/12/25 04:41:14;;;;;;;91.90;20.42;;;;;;;;;;4988704;28;20470;-90
2022/12/25 04:43:40;;;;;;;47.13;11.18;;;;;;;;;;4990551;28;20031;-91
2022/12/25 04:46:06;;;;;;;46.50;14.63;;;;;;;;;;4991031;28;20041;-91
2022/12/25 04:48:32;;;;;;;52.05;14.13;;;;;;;;;;4995276;28;20052;-91
2022/12/25 04:51:08;;;;;;;55.35;10.70;;;;;;;;;;4986834;28;20034;-90
2022/12/25 04:53:34;;;;;;;67.65;19.15;;;;;;;;;;5000330;28;20044;-91
2022/12/25 04:56:01;;;;;;;35.08;10.40;;;;;;;;;;4970506;28;20054;-91
2022/12/25 04:58:27;;;;;;;87.28;18.33;;;;;;;;;;4988462;28;20029;-91
2022/12/25 05:00:53;;;;;;;100.63;20.80;;;;;;;;;;4979158;28;20484;-91
2022/12/25 05:03:19;;;;;;;81.85;19.27;;;;;;;;;;4974421;28;20042;-91
2022/12/25 05:05:45;;;;;;;78.25;18.38;;;;;;;;;;4994174;28;20236;-91
2022/12/25 05:08:11;;;;;;;72.93;17.63;;;;;;;;;;4988217;28;20025;-91
2022/12/25 05:10:39;;;;;;;73.43;18.50;;;;;;;;;;4972411;28;20474;-90
2022/12/25 05:13:05;;;;;;;51.85;13.77;;;;;;;;;;4992953;28;20037;-91
2022/12/25 05:15:31;;;;;;;68.53;17.50;;;;;;;;;;5000765;28;20112;-91
2022/12/25 05:17:57;;;;;;;50.95;15.23;;;;;;;;;;4979134;28;20129;-91
2022/12/25 05:20:26;;;;;;;84.85;19.52;;;;;;;;;;4987962;28;20084;-91
2022/12/25 05:22:52;;;;;;;57.30;18.13;;;;;;;;;;4971723;28;20038;-91
2022/12/25 05:25:18;;;;;;;72.25;18.92;;;;;;;;;;4971174;28;20076;-91
2022/12/25 05:27:44;;;;;;;77.40;18.60;;;;;;;;;;4999914;28;20070;-91
2022/12/25 05:30:10;;;;;;;65.32;18.08;;;;;;;;;;4972743;28;20034;-91
2022/12/25 05:32:36;;;;;;;46.35;12.65;;;;;;;;;;4989845;28;20501;-91
2022/12/25 05:35:02;;;;;;;61.88;16.08;;;;;;;;;;4994100;28;20061;-91
2022/12/25 05:37:28;;;;;;;71.75;15.55;;;;;;;;;;4971820;28;20026;-91
2022/12/25 05:39:54;;;;;;;67.15;17.00;;;;;;;;;;4970893;28;20092;-90
2022/12/25 05:42:20;;;;;;;44.70;13.65;;;;;;;;;;4981739;28;20053;-91
2022/12/25 05:44:46;;;;;;;64.80;16.38;;;;;;;;;;4979525;28;20049;-91
2022/12/25 05:47:12;;;;;;;62.13;17.02;;;;;;;;;;4989749;28;20030;-91
2022/12/25 05:49:38;;;;;;;94.32;17.55;;;;;;;;;;4969126;28;20040;-91
2022/12/25 05:52:04;;;;;;;57.80;15.10;;;;;;;;;;4977790;28;20483;-91
2022/12/25 05:54:30;;;;;;;94.35;18.98;;;;;;;;;;4993996;28;20066;-91
2022/12/25 05:56:56;;;;;;;57.53;17.05;;;;;;;;;;4978367;28;20109;-90
2022/12/25 05:59:22;;;;;;;67.72;18.30;;;;;;;;;;4969998;28;20129;-91
2022/12/25 06:01:48;;;;;;;13.20;5.70;;;;;;;;;;4973888;28;20440;-91
2022/12/25 06:04:14;;;;;;;81.65;18.52;;;;;;;;;;4969900;28;20129;-91
2022/12/25 06:06:40;;;;;;;74.88;20.08;;;;;;;;;;4966094;28;20474;-90
2022/12/25 06:09:06;;;;;;;64.43;15.25;;;;;;;;;;5000543;28;20026;-91
2022/12/25 06:11:32;;;;;;;82.20;19.25;;;;;;;;;;4973054;28;20127;-91
2022/12/25 06:13:58;;;;;;;49.65;13.57;;;;;;;;;;4987302;28;20054;-91
2022/12/25 06:16:24;;;;;;;74.68;19.05;;;;;;;;;;4990557;28;20065;-91
2022/12/25 06:18:51;;;;;;;47.97;13.80;;;;;;;;;;4983936;28;20092;-91
2022/12/25 06:21:17;;;;;;;57.65;15.93;;;;;;;;;;4991574;28;20590;-91
2022/12/25 06:23:43;;;;;;;84.55;20.58;;;;;;;;;;5000419;28;20044;-91
2022/12/25 06:26:11;;;;;;;62.42;16.27;;;;;;;;;;5009824;28;20466;-91
2022/12/25 06:28:44;;;;;;;89.28;22.02;;;;;;;;;;4993417;28;20115;-91
2022/12/25 06:31:11;;;;;;;84.88;20.80;;;;;;;;;;4975436;28;20025;-91
2022/12/25 06:33:38;;;;;;;59.47;16.92;;;;;;;;;;4997978;28;20030;-90
2022/12/25 06:36:08;;;;;;;63.05;17.08;;;;;;;;;;4997096;28;20433;-91
2022/12/25 06:38:35;;;;;;;80.05;20.10;;;;;;;;;;4992527;28;20444;-91
2022/12/25 06:41:09;;;;;;;81.68;19.23;;;;;;;;;;4995414;28;20033;-91
2022/12/25 06:43:39;;;;;;;76.90;19.88;;;;;;;;;;4985818;28;20042;-91
2022/12/25 06:46:06;;;;;;;78.80;19.33;;;;;;;;;;4999105;28;20378;-91
2022/12/25 06:48:33;;;;;;;75.30;20.33;;;;;;;;;;4990781;28;20042;-91
2022/12/25 06:50:59;;;;;;;80.93;18.88;;;;;;;;;;4990174;28;20065;-91
2022/12/25 06:53:25;;;;;;;82.45;20.13;;;;;;;;;;4970695;28;20481;-91
2022/12/25 06:56:14;;;;;;;92.50;20.50;;;;;;;;;;5004051;28;20069;-91
2022/12/25 06:58:42;;;;;;;90.97;21.25;;;;;;;;;;5000910;28;20042;-91
2022/12/25 07:01:13;;;;;;;71.07;18.40;;;;;;;;;;5006888;28;20091;-91
2022/12/25 07:03:40;;;;;;;83.88;21.92;;;;;;;;;;5007257;28;20120;-91
2022/12/25 07:06:06;;;;;;;99.57;22.45;;;;;;;;;;4973084;28;20037;-91
2022/12/25 07:08:32;;;;;;;69.05;17.42;;;;;;;;;;4976264;28;20095;-90
2022/12/25 07:10:59;;;;;;;97.18;22.02;;;;;;;;;;4974329;28;20034;-91
2022/12/25 07:13:25;;;;;;;90.57;21.88;;;;;;;;;;5007861;28;20070;-91
2022/12/25 07:15:58;;;;;;;83.38;18.90;;;;;;;;;;4986877;28;20542;-91
2022/12/25 07:18:24;;;;;;;69.47;18.98;;;;;;;;;;5002011;28;20282;-91
2022/12/25 07:20:50;;;;;;;83.35;19.13;;;;;;;;;;4970734;28;20039;-91
2022/12/25 07:23:16;;;;;;;93.95;22.85;;;;;;;;;;4988478;28;20042;-91
2022/12/25 07:25:52;;;;;;;97.00;23.20;;;;;;;;;;4977413;28;20568;-91
2022/12/25 07:28:18;;;;;;;93.00;21.35;;;;;;;;;;5005169;28;20030;-91
2022/12/25 07:30:44;;;;;;;107.60;21.70;;;;;;;;;;4974268;28;20361;-91
2022/12/25 07:33:10;;;;;;;82.90;22.42;;;;;;;;;;4978725;28;20029;-91
2022/12/25 07:35:36;;;;;;;67.63;15.95;;;;;;;;;;4982654;28;20116;-91
2022/12/25 07:38:02;;;;;;;69.13;21.75;;;;;;;;;;4974639;28;20068;-91
2022/12/25 07:40:28;;;;;;;95.45;24.15;;;;;;;;;;4976725;28;20037;-91
2022/12/25 07:42:54;;;;;;;99.78;24.80;;;;;;;;;;5005271;28;20382;-91
2022/12/25 07:45:20;;;;;;;120.60;27.73;;;;;;;;;;4972355;28;20125;-91
2022/12/25 07:47:46;;;;;;;93.47;24.65;;;;;;;;;;4973311;28;20037;-91
2022/12/25 07:50:12;;;;;;;90.15;25.23;;;;;;;;;;4996490;28;20065;-91
2022/12/25 07:52:39;;;;;;;86.13;24.63;;;;;;;;;;4990247;28;20029;-91
2022/12/25 07:55:05;;;;;;;91.10;23.48;;;;;;;;;;4970363;28;20046;-91
2022/12/25 07:57:31;;;;;;;58.22;15.48;;;;;;;;;;4995476;28;20037;-90
2022/12/25 07:59:57;;;;;;;85.85;23.85;;;;;;;;;;4985255;28;20034;-91
2022/12/25 08:02:27;;;;;;;87.05;23.15;;;;;;;;;;4996417;28;20418;-91
2022/12/25 08:04:56;;;;;;;86.30;24.88;;;;;;;;;;4984681;28;20253;-91
2022/12/25 08:07:23;;;;;;;58.38;17.02;;;;;;;;;;4990966;28;20030;-91
2022/12/25 08:09:49;;;;;;;83.72;24.92;;;;;;;;;;4996970;28;20033;-91
2022/12/25 08:12:15;;;;;;;86.50;25.25;;;;;;;;;;4971784;28;20536;-92
2022/12/25 08:14:41;;;;;;;83.72;19.73;;;;;;;;;;4969020;28;20044;-90
2022/12/25 08:17:07;;;;;;;77.55;23.20;;;;;;;;;;4985167;28;20500;-91
2022/12/25 08:19:33;;;;;;;84.40;22.70;;;;;;;;;;4972155;28;20205;-91
2022/12/25 08:21:59;;;;;;;81.88;24.63;;;;;;;;;;4972780;28;20041;-91
2022/12/25 08:24:25;;;;;;;74.35;21.05;;;;;;;;;;4988418;28;20080;-91
2022/12/25 08:26:51;;;;;;;65.22;21.10;;;;;;;;;;4997714;28;20034;-91
2022/12/25 08:29:17;;;;;;;75.82;21.63;;;;;;;;;;4973702;28;20034;-91
2022/12/25 08:31:43;;;;;;;69.53;22.08;;;;;;;;;;4998049;28;20026;-91
2022/12/25 08:34:10;;;;;;;46.55;14.13;;;;;;;;;;4973818;28;20428;-91
2022/12/25 08:36:36;;;;;;;59.08;19.33;;;;;;;;;;4996545;28;20064;-91
2022/12/25 08:39:03;;;;;;;75.75;21.65;;;;;;;;;;4988966;28;20707;-91
2022/12/25 08:41:29;;;;;;;75.53;20.13;;;;;;;;;;4974459;28;20069;-92
2022/12/25 08:43:55;;;;;;;69.60;19.88;;;;;;;;;;4990089;28;20022;-91
2022/12/25 08:46:21;;;;;;;56.65;18.42;;;;;;;;;;4989342;28;20087;-91
2022/12/25 08:48:48;;;;;;;61.33;16.75;;;;;;;;;;5004258;28;20068;-91
2022/12/25 08:51:16;;;;;;;66.32;20.95;;;;;;;;;;4989122;28;20029;-91
2022/12/25 08:53:43;;;;;;;69.05;18.42;;;;;;;;;;4994639;28;20405;-91
2022/12/25 08:56:09;;;;;;;27.83;9.38;;;;;;;;;;4975837;28;20053;-91
2022/12/25 08:58:35;;;;;;;57.10;14.25;;;;;;;;;;4996494;28;20493;-91
2022/12/25 09:01:01;;;;;;;60.10;16.58;;;;;;;;;;4998268;28;20026;-92
2022/12/25 09:03:27;;;;;;;47.08;15.38;;;;;;;;;;4976401;28;20061;-91
2022/12/25 09:05:54;;;;;;;54.58;15.43;;;;;;;;;;4996294;28;20540;-91
2022/12/25 09:08:20;;;;;;;58.67;14.60;;;;;;;;;;5005636;28;20029;-91
2022/12/25 09:10:47;;;;;;;53.42;15.88;;;;;;;;;;5001618;28;20033;-91
2022/12/25 09:13:13;;;;;;;49.13;15.80;;;;;;;;;;4989703;28;20030;-91
2022/12/25 09:15:39;;;;;;;39.35;12.43;;;;;;;;;;5004493;28;20033;-91
2022/12/25 09:18:06;;;;;;;48.80;14.45;;;;;;;;;;4975342;28;20033;-91
2022/12/25 09:20:32;;;;;;;41.28;15.73;;;;;;;;;;4984459;28;20509;-91
2022/12/25 09:22:58;;;;;;;45.85;14.27;;;;;;;;;;4986354;28;20030;-91
2022/12/25 09:25:24;;;;;;;23.20;8.88;;;;;;;;;;4971474;28;20056;-91
2022/12/25 09:27:50;;;;;;;31.77;9.88;;;;;;;;;;4982484;28;20117;-91
2022/12/25 09:30:16;;;;;;;42.63;13.68;;;;;;;;;;4979391;28;20053;-91
2022/12/25 09:32:42;;;;;;;43.95;12.68;;;;;;;;;;4989216;28;20631;-91
2022/12/25 09:35:08;;;;;;;40.15;12.50;;;;;;;;;;4992357;28;20038;-91
2022/12/25 09:37:34;;;;;;;43.55;12.93;;;;;;;;;;5006286;28;20034;-91
2022/12/25 09:40:00;;;;;;;46.15;14.13;;;;;;;;;;4997345;28;20044;-91
2022/12/25 09:42:30;;;;;;;40.38;12.77;;;;;;;;;;4969920;28;20513;-91
2022/12/25 09:45:18;;;;;;;41.80;13.48;;;;;;;;;;4980773;28;20026;-91
2022/12/25 09:47:45;;;;;;;38.85;12.80;;;;;;;;;;4989184;28;20030;-91
2022/12/25 09:50:19;;;;;;;27.08;12.68;;;;;;;;;;4997973;28;20083;-91
2022/12/25 09:52:51;;;;;;;26.27;11.85;;;;;;;;;;5003980;28;20482;-91
2022/12/25 09:55:19;;;;;;;42.42;11.10;;;;;;;;;;5004882;28;20041;-91
2022/12/25 09:57:45;;;;;;;18.73;6.70;;;;;;;;;;4994714;28;20022;-91
2022/12/25 10:00:16;;;;;;;14.10;6.82;;;;;;;;;;4995157;28;20022;-91
2022/12/25 10:03:02;;;;;;;25.73;11.73;;;;;;;;;;4989516;28;20034;-91
2022/12/25 10:05:31;;;;;;;26.38;10.18;;;;;;;;;;4976454;28;20133;-91
2022/12/25 10:08:09;;;;;;;29.98;9.38;;;;;;;;;;5003227;28;20394;-91
2022/12/25 10:10:43;;;;;;;37.42;10.45;;;;;;;;;;5002908;28;21322;-91
2022/12/25 10:13:22;;;;;;;25.33;9.07;;;;;;;;;;5001958;28;20056;-92
2022/12/25 10:15:57;;;;;;;22.50;6.40;;;;;;;;;;4990175;28;20034;-92
2022/12/25 10:18:23;;;;;;;28.90;8.38;;;;;;;;;;4988332;28;20068;-91
2022/12/25 10:20:55;;;;;;;24.48;8.27;;;;;;;;;;5001186;28;20061;-91
2022/12/25 10:23:33;;;;;;;6.72;2.70;;;;;;;;;;5004438;28;20124;-91
2022/12/25 10:25:59;;;;;;;12.35;4.80;;;;;;;;;;5001372;28;20041;-91
2022/12/25 10:28:43;;;;;;;26.15;7.60;;;;;;;;;;4976619;28;20057;-91
2022/12/25 10:31:20;;;;;;;20.40;7.70;;;;;;;;;;5003724;28;20076;-91
2022/12/25 10:33:47;;;;;;;25.08;6.50;;;;;;;;;;5004729;28;20038;-91
2022/12/25 10:36:15;;;;;;;14.57;5.80;;;;;;;;;;4985366;28;20038;-91
2022/12/25 10:38:41;;;;;;;28.45;6.78;;;;;;;;;;5004775;28;20034;-91
2022/12/25 10:41:21;;;;;;;19.45;7.03;;;;;;;;;;4976459;28;20038;-91
2022/12/25 10:43:53;;;;;;;22.08;8.48;;;;;;;;;;5006128;28;20415;-91
2022/12/25 10:46:20;;;;;;;22.42;7.63;;;;;;;;;;5005534;28;20030;-92
2022/12/25 10:48:51;;;;;;;14.88;6.72;;;;;;;;;;4989281;28;20140;-91
2022/12/25 10:51:31;;;;;;;14.70;5.45;;;;;;;;;;4999014;28;20453;-91
2022/12/25 10:53:57;;;;;;;20.08;7.00;;;;;;;;;;4990689;28;20642;-91
2022/12/25 10:56:29;;;;;;;13.63;5.47;;;;;;;;;;4995885;28;20057;-91
2022/12/25 10:59:05;;;;;;;22.98;6.88;;;;;;;;;;5003331;28;20032;-91
2022/12/25 11:01:35;;;;;;;20.05;6.95;;;;;;;;;;5013199;28;20026;-91
2022/12/25 11:04:01;;;;;;;17.27;6.80;;;;;;;;;;4994470;28;20034;-91
2022/12/25 11:06:28;;;;;;;26.20;5.55;;;;;;;;;;4992121;28;20097;-91
2022/12/25 11:08:57;;;;;;;17.92;6.65;;;;;;;;;;5002864;28;20035;-91
2022/12/25 11:11:23;;;;;;;18.38;7.68;;;;;;;;;;4989272;28;20037;-91
2022/12/25 11:14:00;;;;;;;9.30;4.20;;;;;;;;;;4999172;28;20481;-91
2022/12/25 11:16:35;;;;;;;16.00;6.45;;;;;;;;;;5004133;28;20041;-91
2022/12/25 11:19:02;;;;;;;18.58;5.47;;;;;;;;;;5008559;28;20572;-91
2022/12/25 11:21:32;;;;;;;8.93;4.22;;;;;;;;;;4991784;28;20042;-91
2022/12/25 11:24:03;;;;;;;12.00;5.32;;;;;;;;;;4991754;28;20037;-92
2022/12/25 11:26:31;;;;;;;19.35;5.47;;;;;;;;;;4989318;28;20076;-91
2022/12/25 11:28:57;;;;;;;15.73;4.50;;;;;;;;;;5004211;28;20399;-91
2022/12/25 11:31:30;;;;;;;12.93;4.93;;;;;;;;;;5005172;28;20440;-91
2022/12/25 11:34:05;;;;;;;11.27;4.10;;;;;;;;;;5002633;28;20034;-91
2022/12/25 11:36:51;;;;;;;13.57;5.40;;;;;;;;;;4997475;28;20035;-91
2022/12/25 11:39:37;;;;;;;19.65;7.47;;;;;;;;;;4985120;28;20157;-92
2022/12/25 11:42:16;;;;;;;14.98;6.30;;;;;;;;;;4984411;28;20073;-91
2022/12/25 11:44:51;;;;;;;11.88;5.93;;;;;;;;;;4983011;28;20026;-91
2022/12/25 11:47:17;;;;;;;20.52;7.03;;;;;;;;;;5001413;28;20030;-91
2022/12/25 11:49:50;;;;;;;20.05;6.68;;;;;;;;;;4985435;28;20190;-91
2022/12/25 11:52:16;;;;;;;23.92;6.53;;;;;;;;;;4988002;28;20026;-91
2022/12/25 11:54:47;;;;;;;12.75;4.35;;;;;;;;;;4985311;28;20485;-91
2022/12/25 11:57:13;;;;;;;13.73;6.20;;;;;;;;;;4986268;28;20051;-91
2022/12/25 11:59:48;;;;;;;19.17;5.65;;;;;;;;;;4971377;28;20393;-91
2022/12/25 12:02:28;;;;;;;14.60;5.63;;;;;;;;;;4990775;28;20659;-91
2022/12/25 12:05:02;;;;;;;10.95;4.65;;;;;;;;;;4968702;28;20124;-92
2022/12/25 12:07:29;;;;;;;18.13;5.60;;;;;;;;;;4986585;28;20030;-91
2022/12/25 12:10:04;;;;;;;11.90;5.20;;;;;;;;;;4983784;28;20058;-91
2022/12/25 12:12:40;;;;;;;18.52;6.28;;;;;;;;;;4969645;28;20046;-91
2022/12/25 12:15:13;;;;;;;14.00;4.60;;;;;;;;;;4968399;28;20388;-91
2022/12/25 12:17:39;;;;;;;17.48;5.90;;;;;;;;;;4975066;28;20034;-91
2022/12/25 12:20:13;;;;;;;17.25;5.38;;;;;;;;;;4956301;28;20034;-91
2022/12/25 12:22:47;;;;;;;21.20;6.85;;;;;;;;;;4975219;28;20518;-92
2022/12/25 12:25:17;;;;;;;12.90;5.07;;;;;;;;;;4968731;28;20399;-91
2022/12/25 12:27:44;;;;;;;18.40;4.88;;;;;;;;;;4963998;28;20022;-91
2022/12/25 12:30:24;;;;;;;15.93;4.05;;;;;;;;;;4969606;28;20438;-91
2022/12/25 12:32:54;;;;;;;14.73;5.07;;;;;;;;;;4972367;28;20562;-91
2022/12/25 12:35:26;;;;;;;17.85;6.68;;;;;;;;;;4969916;28;20704;-91
2022/12/25 12:37:54;;;;;;;22.92;6.63;;;;;;;;;;4960123;28;20114;-91
2022/12/25 12:40:24;;;;;;;23.02;10.27;;;;;;;;;;4978906;28;20054;-91
2022/12/25 12:42:51;;;;;;;21.40;6.55;;;;;;;;;;4965701;28;20487;-91
2022/12/25 12:45:17;;;;;;;18.25;6.97;;;;;;;;;;4973020;28;20137;-91
2022/12/25 12:47:50;;;;;;;18.27;7.00;;;;;;;;;;4968592;28;20048;-91
2022/12/25 12:50:27;;;;;;;18.77;6.88;;;;;;;;;;4980160;28;20378;-91
2022/12/25 12:53:20;;;;;;;17.50;6.55;;;;;;;;;;4965708;28;20097;-91
2022/12/25 12:55:52;;;;;;;16.05;5.30;;;;;;;;;;4977130;28;20101;-91
2022/12/25 12:58:47;;;;;;;24.30;5.55;;;;;;;;;;4997406;28;20034;-91
2022/12/25 13:01:36;;;;;;;11.80;5.90;;;;;;;;;;4983917;28;20065;-91
2022/12/25 13:04:08;;;;;;;15.05;6.13;;;;;;;;;;5000625;28;20049;-91
2022/12/25 13:06:40;;;;;;;12.70;6.07;;;;;;;;;;4992185;28;20104;-91
2022/12/25 13:09:14;;;;;;;15.65;6.07;;;;;;;;;;4989789;28;20070;-89
2022/12/25 13:11:42;;;;;;;15.68;6.50;;;;;;;;;;5001771;28;20440;-90
2022/12/25 13:14:16;;;;;;;18.65;8.38;;;;;;;;;;5003587;28;20037;-90
2022/12/25 13:16:43;;;;;;;14.63;6.45;;;;;;;;;;4984982;28;20088;-90
2022/12/25 13:19:13;;;;;;;11.35;6.05;;;;;;;;;;4992797;28;20115;-90
2022/12/25 13:21:40;;;;;;;15.90;5.82;;;;;;;;;;4996869;28;20048;-90
2022/12/25 13:24:17;;;;;;;10.60;5.60;;;;;;;;;;4982257;28;20026;-90
2022/12/25 13:26:43;;;;;;;15.63;5.82;;;;;;;;;;4998569;28;20617;-90
2022/12/25 13:29:38;;;;;;;17.42;5.95;;;;;;;;;;4982338;28;20340;-90
2022/12/25 13:32:06;;;;;;;10.40;5.07;;;;;;;;;;4974620;28;20088;-89
2022/12/25 13:34:36;;;;;;;8.90;5.28;;;;;;;;;;4983341;28;20832;-90
2022/12/25 13:37:07;;;;;;;15.45;6.25;;;;;;;;;;4981955;28;20133;-89
2022/12/25 13:39:34;;;;;;;19.38;6.47;;;;;;;;;;4996051;28;20494;-90
2022/12/25 13:42:08;;;;;;;16.90;6.05;;;;;;;;;;4984773;28;20033;-90
2022/12/25 13:44:46;;;;;;;12.65;5.82;;;;;;;;;;4973680;28;20699;-89
2022/12/25 13:47:17;;;;;;;30.70;14.70;;;;;;;;;;4984752;28;20084;-89
2022/12/25 13:49:43;;;;;;;21.08;9.05;;;;;;;;;;4981890;28;20026;-89
2022/12/25 13:52:11;;;;;;;16.13;6.90;;;;;;;;;;4967526;28;20029;-89
2022/12/25 13:54:37;;;;;;;14.30;6.35;;;;;;;;;;4995556;28;20290;-89
2022/12/25 13:57:12;;;;;;;17.52;7.32;;;;;;;;;;4984893;28;20048;-90
2022/12/25 13:59:38;;;;;;;16.23;6.63;;;;;;;;;;4976232;28;20018;-90
2022/12/25 14:02:04;;;;;;;16.75;6.60;;;;;;;;;;4963668;28;20166;-89
2022/12/25 14:04:30;;;;;;;13.30;6.90;;;;;;;;;;4997597;28;20803;-90
2022/12/25 14:06:56;;;;;;;16.40;7.40;;;;;;;;;;4972383;28;20049;-89
2022/12/25 14:09:22;;;;;;;20.50;8.15;;;;;;;;;;4987524;28;20029;-90
2022/12/25 14:11:49;;;;;;;27.50;9.45;;;;;;;;;;4995630;28;20036;-89
2022/12/25 14:14:18;;;;;;;25.33;10.95;;;;;;;;;;5002176;28;20025;-90
2022/12/25 14:16:48;;;;;;;21.23;10.63;;;;;;;;;;5002131;28;20402;-90
2022/12/25 14:19:40;;;;;;;32.28;12.13;;;;;;;;;;4987770;28;20112;-90
2022/12/25 14:22:24;;;;;;;34.05;12.45;;;;;;;;;;4979837;28;20473;-90
2022/12/25 14:24:51;;;;;;;33.17;13.63;;;;;;;;;;4967037;28;20089;-90
2022/12/25 14:27:21;;;;;;;30.75;13.45;;;;;;;;;;4962160;28;20100;-90
2022/12/25 14:29:48;;;;;;;36.72;13.90;;;;;;;;;;4995458;28;20045;-90
2022/12/25 14:32:16;;;;;;;33.80;14.75;;;;;;;;;;4965846;28;20556;-90
2022/12/25 14:34:44;;;;;;;34.47;15.73;;;;;;;;;;4996020;28;20992;-90
2022/12/25 14:37:14;;;;;;;43.40;15.32;;;;;;;;;;4986813;28;20025;-89
2022/12/25 14:39:40;;;;;;;34.30;15.60;;;;;;;;;;4992587;28;20738;-90
2022/12/25 14:42:15;;;;;;;43.33;16.27;;;;;;;;;;4985015;28;20629;-90
2022/12/25 14:44:41;;;;;;;54.97;21.27;;;;;;;;;;5001464;28;20034;-90
2022/12/25 14:47:10;;;;;;;55.28;22.52;;;;;;;;;;4996062;28;20735;-89
2022/12/25 14:49:37;;;;;;;40.03;17.55;;;;;;;;;;5008953;28;20038;-90
2022/12/25 14:52:14;;;;;;;44.10;16.88;;;;;;;;;;4971514;28;20031;-90
2022/12/25 14:54:43;;;;;;;36.75;17.33;;;;;;;;;;4987210;28;20030;-90
2022/12/25 14:57:16;;;;;;;45.53;16.27;;;;;;;;;;4985767;28;20772;-90
2022/12/25 14:59:42;;;;;;;47.70;19.13;;;;;;;;;;4999547;28;20532;-90
2022/12/25 15:02:17;;;;;;;35.67;15.63;;;;;;;;;;4971875;28;20481;-90
2022/12/25 15:04:43;;;;;;;35.95;17.58;;;;;;;;;;4985934;28;20030;-90
2022/12/25 15:07:26;;;;;;;49.58;17.20;;;;;;;;;;4967179;28;20469;-90
2022/12/25 15:09:52;;;;;;;39.75;18.40;;;;;;;;;;5002134;28;20061;-90
2022/12/25 15:12:18;;;;;;;39.00;17.17;;;;;;;;;;4970142;28;21072;-90
2022/12/25 15:14:44;;;;;;;38.88;17.13;;;;;;;;;;4987004;28;20452;-90
2022/12/25 15:17:17;;;;;;;45.97;17.15;;;;;;;;;;4967962;28;20310;-90
2022/12/25 15:19:43;;;;;;;40.03;17.27;;;;;;;;;;4995942;28;20088;-90
2022/12/25 15:22:12;;;;;;;39.58;18.50;;;;;;;;;;4969363;28;20084;-90
2022/12/25 15:24:38;;;;;;;41.50;18.33;;;;;;;;;;4983977;28;20045;-90
2022/12/25 15:27:05;;;;;;;41.20;18.00;;;;;;;;;;4984566;28;20033;-90
2022/12/25 15:29:31;;;;;;;40.92;17.50;;;;;;;;;;4996896;28;20033;-90
2022/12/25 15:31:57;;;;;;;49.65;18.48;;;;;;;;;;4991613;28;20354;-90
2022/12/25 15:34:24;;;;;;;40.30;16.30;;;;;;;;;;4963774;28;20417;-91
2022/12/25 15:36:53;;;;;;;42.15;16.88;;;;;;;;;;4980646;28;20041;-91
2022/12/25 15:39:19;;;;;;;43.03;17.33;;;;;;;;;;4994265;28;20036;-92
2022/12/25 15:44:29;;;;;;;35.58;16.80;;;;;;;;;;4988179;28;20053;-92
2022/12/25 15:46:56;;;;;;;43.28;18.58;;;;;;;;;;4966877;28;20033;-90
2022/12/25 15:49:22;;;;;;;46.20;18.50;;;;;;;;;;4979425;28;20041;-92
2022/12/25 15:51:48;;;;;;;45.50;21.75;;;;;;;;;;4992114;28;20382;-91
2022/12/25 15:54:14;;;;;;;118.07;53.08;;;;;;;;;;4973770;28;20505;-91
2022/12/25 15:56:48;;;;;;;151.57;64.10;;;;;;;;;;4999403;28;20029;-93
2022/12/25 15:59:15;;;;;;;65.03;28.65;;;;;;;;;;4997546;28;20053;-93
2022/12/25 16:01:43;;;;;;;51.03;22.77;;;;;;;;;;4988130;28;20034;-91
2022/12/25 16:04:09;;;;;;;45.83;22.10;;;;;;;;;;5002218;28;20038;-92
2022/12/25 16:06:35;;;;;;;52.63;21.13;;;;;;;;;;4973647;28;20038;-92
2022/12/25 16:09:01;;;;;;;48.08;20.90;;;;;;;;;;4971002;28;20026;-91
2022/12/25 16:11:27;;;;;;;48.33;19.95;;;;;;;;;;4970761;28;20033;-91
2022/12/25 16:13:53;;;;;;;51.90;20.48;;;;;;;;;;4967309;28;20034;-92
2022/12/25 16:16:21;;;;;;;46.85;20.00;;;;;;;;;;4990156;28;20370;-92
2022/12/25 16:18:47;;;;;;;42.25;20.35;;;;;;;;;;4970631;28;20034;-90